sensor_id;sensor_type;location;lat;lon;timestamp;temperature;humidity
21031;DHT22;61072;47.808;7.636;2023-07-13T04:10:26;21.70;99.90
21031;DHT22;61072;47.808;7.636;2023-07-13T04:12:53;21.70;99.90
21031;DHT22;61072;47.808;7.636;2023-07-13T04:15:20;21.70;99.90
21031;DHT22;61072;47.808;7.636;2023-07-13T04:17:47;21.70;99.90
21031;DHT22;61072;47.808;7.636;2023-07-13T04:20:14;21.70;99.90
21031;DHT22;61072;47.808;7.636;2023-07-13T04:22:40;21.70;99.90
21031;DHT22;61072;47.808;7.636;2023-07-13T04:25:07;21.70;99.90
21031;DHT22;61072;47.808;7.636;2023-07-13T04:27:34;21.70;99.90
21031;DHT22;61072;47.808;7.636;2023-07-13T04:30:01;21.80;99.90
21031;DHT22;61072;47.808;7.636;2023-07-13T04:32:27;21.70;99.90
21031;DHT22;61072;47.808;7.636;2023-07-13T04:34:54;21.70;99.90
21031;DHT22;61072;47.808;7.636;2023-07-13T04:37:22;21.70;99.90
21031;DHT22;61072;47.808;7.636;2023-07-13T04:39:49;21.70;99.90
21031;DHT22;61072;47.808;7.636;2023-07-13T04:42:16;21.70;99.90
21031;DHT22;61072;47.808;7.636;2023-07-13T04:44:48;21.70;99.90
21031;DHT22;61072;47.808;7.636;2023-07-13T04:47:15;21.70;99.90
21031;DHT22;61072;47.808;7.636;2023-07-13T04:49:42;21.70;99.90
21031;DHT22;61072;47.808;7.636;2023-07-13T04:52:09;21.70;99.90
21031;DHT22;61072;47.808;7.636;2023-07-13T04:54:35;21.70;99.90
21031;DHT22;61072;47.808;7.636;2023-07-13T04:57:04;21.70;99.90
21031;DHT22;61072;47.808;7.636;2023-07-13T04:59:33;21.80;99.90
21031;DHT22;61072;47.808;7.636;2023-07-13T05:01:59;21.80;99.90
21031;DHT22;61072;47.808;7.636;2023-07-13T05:04:28;21.90;99.90
21031;DHT22;61072;47.808;7.636;2023-07-13T05:06:54;21.90;99.90
21031;DHT22;61072;47.808;7.636;2023-07-13T05:09:22;21.90;99.90
21031;DHT22;61072;47.808;7.636;2023-07-13T05:11:48;21.80;99.90
21031;DHT22;61072;47.808;7.636;2023-07-13T05:14:15;21.90;99.90
21031;DHT22;61072;47.808;7.636;2023-07-13T05:16:42;21.90;99.90
21031;DHT22;61072;47.808;7.636;2023-07-13T05:19:09;21.90;99.90
21031;DHT22;61072;47.808;7.636;2023-07-13T05:21:36;21.80;99.90
21031;DHT22;61072;47.808;7.636;2023-07-13T05:24:03;21.80;99.90
21031;DHT22;61072;47.808;7.636;2023-07-13T05:26:49;21.80;99.90
21031;DHT22;61072;47.808;7.636;2023-07-13T05:29:16;21.80;99.90
21031;DHT22;61072;47.808;7.636;2023-07-13T05:31:42;21.80;99.90
21031;DHT22;61072;47.808;7.636;2023-07-13T05:34:09;21.80;99.90
21031;DHT22;61072;47.808;7.636;2023-07-13T05:36:36;21.70;99.90
21031;DHT22;61072;47.808;7.636;2023-07-13T05:39:03;21.70;99.90
21031;DHT22;61072;47.808;7.636;2023-07-13T05:41:30;21.80;99.90
21031;DHT22;61072;47.808;7.636;2023-07-13T05:43:57;21.90;99.90
21031;DHT22;61072;47.808;7.636;2023-07-13T05:46:25;21.90;99.90
21031;DHT22;61072;47.808;7.636;2023-07-13T05:48:51;22.00;99.90
21031;DHT22;61072;47.808;7.636;2023-07-13T05:51:18;22.00;99.90
21031;DHT22;61072;47.808;7.636;2023-07-13T05:53:45;22.00;99.90
21031;DHT22;61072;47.808;7.636;2023-07-13T05:56:12;22.10;99.90
21031;DHT22;61072;47.808;7.636;2023-07-13T05:58:39;22.10;99.90
21031;DHT22;61072;47.808;7.636;2023-07-13T06:01:09;22.10;99.90
21031;DHT22;61072;47.808;7.636;2023-07-13T06:03:37;22.10;99.90
21031;DHT22;61072;47.808;7.636;2023-07-13T06:06:08;22.10;99.90
21031;DHT22;61072;47.808;7.636;2023-07-13T06:08:36;22.10;99.90
21031;DHT22;61072;47.808;7.636;2023-07-13T06:11:10;22.10;99.90
21031;DHT22;61072;47.808;7.636;2023-07-13T06:13:39;22.10;99.90
21031;DHT22;61072;47.808;7.636;2023-07-13T06:16:06;22.20;99.90
21031;DHT22;61072;47.808;7.636;2023-07-13T06:18:34;22.20;99.90
21031;DHT22;61072;47.808;7.636;2023-07-13T06:21:21;22.20;99.90
21031;DHT22;61072;47.808;7.636;2023-07-13T06:23:50;22.20;99.90
21031;DHT22;61072;47.808;7.636;2023-07-13T06:26:18;22.20;99.90
21031;DHT22;61072;47.808;7.636;2023-07-13T06:28:46;22.30;99.90
21031;DHT22;61072;47.808;7.636;2023-07-13T06:31:14;22.30;99.90
21031;DHT22;61072;47.808;7.636;2023-07-13T06:33:43;22.30;99.90
21031;DHT22;61072;47.808;7.636;2023-07-13T06:36:10;22.30;99.90
21031;DHT22;61072;47.808;7.636;2023-07-13T06:38:38;22.30;99.90
21031;DHT22;61072;47.808;7.636;2023-07-13T06:41:06;22.40;99.90
21031;DHT22;61072;47.808;7.636;2023-07-13T06:43:33;22.40;99.90
21031;DHT22;61072;47.808;7.636;2023-07-13T06:46:00;22.40;99.90
21031;DHT22;61072;47.808;7.636;2023-07-13T06:48:27;22.40;99.90
21031;DHT22;61072;47.808;7.636;2023-07-13T06:50:55;22.40;99.90
21031;DHT22;61072;47.808;7.636;2023-07-13T06:53:22;22.40;99.90
21031;DHT22;61072;47.808;7.636;2023-07-13T06:55:49;22.40;99.90
21031;DHT22;61072;47.808;7.636;2023-07-13T06:58:17;22.40;99.90
21031;DHT22;61072;47.808;7.636;2023-07-13T07:00:45;22.40;99.90
21031;DHT22;61072;47.808;7.636;2023-07-13T07:03:12;22.50;99.90
21031;DHT22;61072;47.808;7.636;2023-07-13T07:05:38;22.50;99.90
21031;DHT22;61072;47.808;7.636;2023-07-13T07:08:05;22.50;99.90
21031;DHT22;61072;47.808;7.636;2023-07-13T07:10:33;22.50;99.90
21031;DHT22;61072;47.808;7.636;2023-07-13T07:13:00;22.40;99.90
21031;DHT22;61072;47.808;7.636;2023-07-13T07:15:27;22.50;99.90
21031;DHT22;61072;47.808;7.636;2023-07-13T07:17:54;22.50;99.90
21031;DHT22;61072;47.808;7.636;2023-07-13T07:20:21;22.50;99.90
21031;DHT22;61072;47.808;7.636;2023-07-13T07:22:48;22.50;99.90
21031;DHT22;61072;47.808;7.636;2023-07-13T07:25:15;22.50;99.90
21031;DHT22;61072;47.808;7.636;2023-07-13T07:27:42;22.60;99.90
21031;DHT22;61072;47.808;7.636;2023-07-13T07:30:12;22.50;99.90
21031;DHT22;61072;47.808;7.636;2023-07-13T07:32:41;22.60;99.90
21031;DHT22;61072;47.808;7.636;2023-07-13T07:35:23;22.60;99.90
21031;DHT22;61072;47.808;7.636;2023-07-13T07:37:50;22.60;99.90
21031;DHT22;61072;47.808;7.636;2023-07-13T07:40:17;22.60;99.90
21031;DHT22;61072;47.808;7.636;2023-07-13T07:42:47;22.60;99.90
21031;DHT22;61072;47.808;7.636;2023-07-13T07:45:14;22.70;99.90
21031;DHT22;61072;47.808;7.636;2023-07-13T07:47:41;22.70;99.90
21031;DHT22;61072;47.808;7.636;2023-07-13T07:50:09;22.70;99.90
21031;DHT22;61072;47.808;7.636;2023-07-13T07:52:36;22.80;99.90
21031;DHT22;61072;47.808;7.636;2023-07-13T07:55:04;22.80;99.90
21031;DHT22;61072;47.808;7.636;2023-07-13T07:57:34;22.90;99.90
21031;DHT22;61072;47.808;7.636;2023-07-13T08:00:04;22.90;99.90
21031;DHT22;61072;47.808;7.636;2023-07-13T08:02:34;23.00;99.90
21031;DHT22;61072;47.808;7.636;2023-07-13T08:05:04;23.00;99.90
21031;DHT22;61072;47.808;7.636;2023-07-13T08:07:34;23.00;99.90
21031;DHT22;61072;47.808;7.636;2023-07-13T08:10:01;23.10;99.90
21031;DHT22;61072;47.808;7.636;2023-07-13T08:12:28;23.10;99.90
21031;DHT22;61072;47.808;7.636;2023-07-13T08:14:57;23.10;99.90
21031;DHT22;61072;47.808;7.636;2023-07-13T08:17:24;23.10;99.90
21031;DHT22;61072;47.808;7.636;2023-07-13T08:19:51;23.20;99.90
21031;DHT22;61072;47.808;7.636;2023-07-13T08:22:18;23.20;99.90
21031;DHT22;61072;47.808;7.636;2023-07-13T08:24:45;23.20;99.90
21031;DHT22;61072;47.808;7.636;2023-07-13T08:27:13;23.30;99.90
21031;DHT22;61072;47.808;7.636;2023-07-13T08:29:40;23.40;99.90
21031;DHT22;61072;47.808;7.636;2023-07-13T08:32:07;23.40;99.90
21031;DHT22;61072;47.808;7.636;2023-07-13T08:34:36;23.50;99.90
21031;DHT22;61072;47.808;7.636;2023-07-13T08:37:03;23.50;99.90
21031;DHT22;61072;47.808;7.636;2023-07-13T08:39:31;23.60;99.90
21031;DHT22;61072;47.808;7.636;2023-07-13T08:42:05;23.60;99.90
21031;DHT22;61072;47.808;7.636;2023-07-13T08:45:07;23.60;99.90
21031;DHT22;61072;47.808;7.636;2023-07-13T08:47:38;23.70;99.90
21031;DHT22;61072;47.808;7.636;2023-07-13T08:50:11;23.70;99.90
21031;DHT22;61072;47.808;7.636;2023-07-13T08:52:40;23.80;99.90
21031;DHT22;61072;47.808;7.636;2023-07-13T08:55:22;23.90;99.90
21031;DHT22;61072;47.808;7.636;2023-07-13T08:57:54;23.90;99.90
21031;DHT22;61072;47.808;7.636;2023-07-13T09:00:24;24.00;99.90
21031;DHT22;61072;47.808;7.636;2023-07-13T09:02:57;24.10;99.90
21031;DHT22;61072;47.808;7.636;2023-07-13T09:05:32;24.20;99.90
21031;DHT22;61072;47.808;7.636;2023-07-13T09:10:34;24.40;99.90
21031;DHT22;61072;47.808;7.636;2023-07-13T09:13:35;24.50;99.90
21031;DHT22;61072;47.808;7.636;2023-07-13T09:16:04;24.60;99.90
21031;DHT22;61072;47.808;7.636;2023-07-13T09:18:37;24.80;99.90
21031;DHT22;61072;47.808;7.636;2023-07-13T09:21:08;24.90;99.90
21031;DHT22;61072;47.808;7.636;2023-07-13T09:23:37;25.00;99.90
21031;DHT22;61072;47.808;7.636;2023-07-13T09:26:12;25.10;99.90
21031;DHT22;61072;47.808;7.636;2023-07-13T09:28:43;25.20;99.90
21031;DHT22;61072;47.808;7.636;2023-07-13T09:33:39;25.30;99.90
21031;DHT22;61072;47.808;7.636;2023-07-13T09:36:22;25.30;99.90
21031;DHT22;61072;47.808;7.636;2023-07-13T09:44:59;25.50;99.90
21031;DHT22;61072;47.808;7.636;2023-07-13T09:47:28;25.50;99.90
21031;DHT22;61072;47.808;7.636;2023-07-13T09:50:05;25.50;99.90
21031;DHT22;61072;47.808;7.636;2023-07-13T09:52:45;25.50;99.90
21031;DHT22;61072;47.808;7.636;2023-07-13T09:55:34;25.50;99.90
21031;DHT22;61072;47.808;7.636;2023-07-13T10:00:37;25.50;99.90
21031;DHT22;61072;47.808;7.636;2023-07-13T10:03:20;25.60;99.90
21031;DHT22;61072;47.808;7.636;2023-07-13T10:05:50;25.50;99.90
21031;DHT22;61072;47.808;7.636;2023-07-13T10:08:30;25.40;99.90
21031;DHT22;61072;47.808;7.636;2023-07-13T10:11:17;25.50;99.90
21031;DHT22;61072;47.808;7.636;2023-07-13T10:13:56;25.40;99.90
21031;DHT22;61072;47.808;7.636;2023-07-13T10:16:28;25.40;99.90
21031;DHT22;61072;47.808;7.636;2023-07-13T10:19:04;25.40;99.90
21031;DHT22;61072;47.808;7.636;2023-07-13T10:21:35;25.30;99.90
21031;DHT22;61072;47.808;7.636;2023-07-13T10:24:10;25.30;99.90
21031;DHT22;61072;47.808;7.636;2023-07-13T10:26:46;25.20;99.90
21031;DHT22;61072;47.808;7.636;2023-07-13T10:29:14;25.20;99.90
21031;DHT22;61072;47.808;7.636;2023-07-13T10:31:44;25.10;99.90
21031;DHT22;61072;47.808;7.636;2023-07-13T10:34:13;25.00;99.90
21031;DHT22;61072;47.808;7.636;2023-07-13T10:36:45;25.00;99.90
21031;DHT22;61072;47.808;7.636;2023-07-13T10:39:19;25.00;99.90
21031;DHT22;61072;47.808;7.636;2023-07-13T10:41:55;24.90;99.90
21031;DHT22;61072;47.808;7.636;2023-07-13T10:44:27;24.90;99.90
21031;DHT22;61072;47.808;7.636;2023-07-13T10:46:58;24.90;99.90
21031;DHT22;61072;47.808;7.636;2023-07-13T10:49:28;24.90;99.90
21031;DHT22;61072;47.808;7.636;2023-07-13T10:51:55;24.90;99.90
21031;DHT22;61072;47.808;7.636;2023-07-13T10:54:28;24.90;99.90
21031;DHT22;61072;47.808;7.636;2023-07-13T10:57:16;24.90;99.90
21031;DHT22;61072;47.808;7.636;2023-07-13T10:59:49;25.00;99.90
21031;DHT22;61072;47.808;7.636;2023-07-13T11:02:35;25.00;99.90
21031;DHT22;61072;47.808;7.636;2023-07-13T11:05:26;25.10;99.90
21031;DHT22;61072;47.808;7.636;2023-07-13T11:08:02;25.10;99.90
21031;DHT22;61072;47.808;7.636;2023-07-13T11:11:50;25.10;99.90
21031;DHT22;61072;47.808;7.636;2023-07-13T11:30:40;25.40;99.90
21031;DHT22;61072;47.808;7.636;2023-07-13T11:36:16;25.50;99.90
21031;DHT22;61072;47.808;7.636;2023-07-13T11:39:19;25.50;99.90
21031;DHT22;61072;47.808;7.636;2023-07-13T11:42:15;25.60;99.90
21031;DHT22;61072;47.808;7.636;2023-07-13T11:44:49;25.60;99.90
21031;DHT22;61072;47.808;7.636;2023-07-13T11:47:40;25.60;99.90
21031;DHT22;61072;47.808;7.636;2023-07-13T11:50:18;25.70;99.90
21031;DHT22;61072;47.808;7.636;2023-07-13T11:52:46;25.80;99.90
21031;DHT22;61072;47.808;7.636;2023-07-13T11:55:18;25.80;99.90
21031;DHT22;61072;47.808;7.636;2023-07-13T11:57:49;25.90;99.90
21031;DHT22;61072;47.808;7.636;2023-07-13T12:00:23;25.90;99.90
21031;DHT22;61072;47.808;7.636;2023-07-13T12:02:56;25.90;99.90
21031;DHT22;61072;47.808;7.636;2023-07-13T12:05:24;26.00;99.90
21031;DHT22;61072;47.808;7.636;2023-07-13T12:07:52;26.00;99.90
21031;DHT22;61072;47.808;7.636;2023-07-13T12:10:27;26.00;99.90
21031;DHT22;61072;47.808;7.636;2023-07-13T12:13:02;26.00;99.90
21031;DHT22;61072;47.808;7.636;2023-07-13T12:15:50;26.10;99.90
21031;DHT22;61072;47.808;7.636;2023-07-13T12:18:22;26.20;99.90
21031;DHT22;61072;47.808;7.636;2023-07-13T12:20:56;26.30;99.90
21031;DHT22;61072;47.808;7.636;2023-07-13T12:23:24;26.40;99.90
21031;DHT22;61072;47.808;7.636;2023-07-13T12:25:52;26.40;99.90
21031;DHT22;61072;47.808;7.636;2023-07-13T12:28:31;26.50;99.90
21031;DHT22;61072;47.808;7.636;2023-07-13T12:30:59;26.50;99.90
21031;DHT22;61072;47.808;7.636;2023-07-13T12:33:31;26.60;99.90
21031;DHT22;61072;47.808;7.636;2023-07-13T12:36:04;26.50;99.90
21031;DHT22;61072;47.808;7.636;2023-07-13T12:38:32;26.50;99.90
21031;DHT22;61072;47.808;7.636;2023-07-13T12:41:01;26.50;99.90
21031;DHT22;61072;47.808;7.636;2023-07-13T12:43:34;26.50;99.90
21031;DHT22;61072;47.808;7.636;2023-07-13T12:46:05;26.50;99.90
21031;DHT22;61072;47.808;7.636;2023-07-13T12:48:43;26.50;99.90
21031;DHT22;61072;47.808;7.636;2023-07-13T12:51:27;26.50;99.90
21031;DHT22;61072;47.808;7.636;2023-07-13T12:53:59;26.50;99.90
21031;DHT22;61072;47.808;7.636;2023-07-13T12:56:33;26.50;99.90
21031;DHT22;61072;47.808;7.636;2023-07-13T12:59:02;26.50;99.90
21031;DHT22;61072;47.808;7.636;2023-07-13T13:01:32;26.50;99.90
21031;DHT22;61072;47.808;7.636;2023-07-13T13:04:02;26.50;99.90
21031;DHT22;61072;47.808;7.636;2023-07-13T13:06:35;26.50;99.90
21031;DHT22;61072;47.808;7.636;2023-07-13T13:09:03;26.50;99.90
21031;DHT22;61072;47.808;7.636;2023-07-13T13:11:31;26.40;99.90
21031;DHT22;61072;47.808;7.636;2023-07-13T13:13:58;26.40;99.90
21031;DHT22;61072;47.808;7.636;2023-07-13T13:18:56;26.40;99.90
21031;DHT22;61072;47.808;7.636;2023-07-13T13:21:26;26.40;99.90
21031;DHT22;61072;47.808;7.636;2023-07-13T13:23:52;26.40;99.90
21031;DHT22;61072;47.808;7.636;2023-07-13T13:26:21;26.40;99.90
21031;DHT22;61072;47.808;7.636;2023-07-13T13:28:49;26.40;99.90
21031;DHT22;61072;47.808;7.636;2023-07-13T13:31:16;26.40;99.90
21031;DHT22;61072;47.808;7.636;2023-07-13T13:33:44;26.50;99.90
21031;DHT22;61072;47.808;7.636;2023-07-13T13:36:17;26.50;99.90
21031;DHT22;61072;47.808;7.636;2023-07-13T13:38:44;26.60;99.90
21031;DHT22;61072;47.808;7.636;2023-07-13T13:41:13;26.70;99.40
21031;DHT22;61072;47.808;7.636;2023-07-13T13:43:41;26.70;99.90
21031;DHT22;61072;47.808;7.636;2023-07-13T13:46:19;26.80;99.50
21031;DHT22;61072;47.808;7.636;2023-07-13T13:48:48;26.80;99.40
21031;DHT22;61072;47.808;7.636;2023-07-13T13:51:18;26.80;99.40
21031;DHT22;61072;47.808;7.636;2023-07-13T13:53:46;26.80;99.70
21031;DHT22;61072;47.808;7.636;2023-07-13T13:56:13;26.80;99.60
21031;DHT22;61072;47.808;7.636;2023-07-13T13:58:41;26.70;99.40
21031;DHT22;61072;47.808;7.636;2023-07-13T14:01:17;26.70;98.90
21031;DHT22;61072;47.808;7.636;2023-07-13T14:03:45;26.70;99.50
21031;DHT22;61072;47.808;7.636;2023-07-13T14:06:13;26.70;99.20
21031;DHT22;61072;47.808;7.636;2023-07-13T14:08:40;26.70;99.90
21031;DHT22;61072;47.808;7.636;2023-07-13T14:11:15;26.70;99.90
21031;DHT22;61072;47.808;7.636;2023-07-13T14:13:45;26.70;99.00
21031;DHT22;61072;47.808;7.636;2023-07-13T14:16:19;26.70;99.40
21031;DHT22;61072;47.808;7.636;2023-07-13T14:18:48;26.70;99.20
21031;DHT22;61072;47.808;7.636;2023-07-13T14:21:16;26.70;99.90
21031;DHT22;61072;47.808;7.636;2023-07-13T14:23:45;26.70;99.30
21031;DHT22;61072;47.808;7.636;2023-07-13T14:26:18;26.70;99.40
21031;DHT22;61072;47.808;7.636;2023-07-13T14:28:47;26.70;99.20
21031;DHT22;61072;47.808;7.636;2023-07-13T14:31:16;26.70;99.20
21031;DHT22;61072;47.808;7.636;2023-07-13T14:33:44;26.80;98.80
21031;DHT22;61072;47.808;7.636;2023-07-13T14:36:28;26.80;98.80
21031;DHT22;61072;47.808;7.636;2023-07-13T14:38:58;26.80;98.90
21031;DHT22;61072;47.808;7.636;2023-07-13T14:41:25;26.90;99.30
21031;DHT22;61072;47.808;7.636;2023-07-13T14:43:52;27.00;99.90
21031;DHT22;61072;47.808;7.636;2023-07-13T14:46:33;27.00;98.50
21031;DHT22;61072;47.808;7.636;2023-07-13T14:49:10;27.10;99.40
21031;DHT22;61072;47.808;7.636;2023-07-13T14:51:39;27.20;98.50
21031;DHT22;61072;47.808;7.636;2023-07-13T14:54:07;27.20;98.90
21031;DHT22;61072;47.808;7.636;2023-07-13T14:56:35;27.30;98.70
21031;DHT22;61072;47.808;7.636;2023-07-13T14:59:02;27.30;98.50
21031;DHT22;61072;47.808;7.636;2023-07-13T15:01:29;27.40;98.40
21031;DHT22;61072;47.808;7.636;2023-07-13T15:03:58;27.40;98.60
21031;DHT22;61072;47.808;7.636;2023-07-13T15:06:25;27.50;98.90
21031;DHT22;61072;47.808;7.636;2023-07-13T15:08:52;27.50;99.00
21031;DHT22;61072;47.808;7.636;2023-07-13T15:11:18;27.60;98.40
21031;DHT22;61072;47.808;7.636;2023-07-13T15:13:45;27.60;97.40
21031;DHT22;61072;47.808;7.636;2023-07-13T15:16:21;27.60;98.00
21031;DHT22;61072;47.808;7.636;2023-07-13T15:18:48;27.50;97.60
21031;DHT22;61072;47.808;7.636;2023-07-13T15:21:23;27.50;98.20
21031;DHT22;61072;47.808;7.636;2023-07-13T15:23:51;27.50;98.00
21031;DHT22;61072;47.808;7.636;2023-07-13T15:26:19;27.50;98.30
21031;DHT22;61072;47.808;7.636;2023-07-13T15:28:46;27.40;98.10
21031;DHT22;61072;47.808;7.636;2023-07-13T15:31:23;27.40;97.90
21031;DHT22;61072;47.808;7.636;2023-07-13T15:33:52;27.40;98.00
21031;DHT22;61072;47.808;7.636;2023-07-13T15:36:20;27.40;97.60
21031;DHT22;61072;47.808;7.636;2023-07-13T15:38:48;27.40;97.10
21031;DHT22;61072;47.808;7.636;2023-07-13T15:41:17;27.40;97.00
21031;DHT22;61072;47.808;7.636;2023-07-13T15:43:45;27.40;97.00
21031;DHT22;61072;47.808;7.636;2023-07-13T15:46:12;27.40;97.60
21031;DHT22;61072;47.808;7.636;2023-07-13T15:48:39;27.50;97.10
21031;DHT22;61072;47.808;7.636;2023-07-13T15:51:27;27.50;97.50
21031;DHT22;61072;47.808;7.636;2023-07-13T15:53:58;27.50;97.70
21031;DHT22;61072;47.808;7.636;2023-07-13T15:56:27;27.50;96.30
21031;DHT22;61072;47.808;7.636;2023-07-13T15:58:55;27.50;97.10
21031;DHT22;61072;47.808;7.636;2023-07-13T16:01:23;27.60;96.80
21031;DHT22;61072;47.808;7.636;2023-07-13T16:03:50;27.60;97.10
21031;DHT22;61072;47.808;7.636;2023-07-13T16:06:22;27.50;96.50
21031;DHT22;61072;47.808;7.636;2023-07-13T16:08:52;27.50;97.20
21031;DHT22;61072;47.808;7.636;2023-07-13T16:11:29;27.40;96.20
21031;DHT22;61072;47.808;7.636;2023-07-13T16:13:59;27.40;96.40
21031;DHT22;61072;47.808;7.636;2023-07-13T16:16:31;27.30;96.40
21031;DHT22;61072;47.808;7.636;2023-07-13T16:19:00;27.30;96.30
21031;DHT22;61072;47.808;7.636;2023-07-13T16:21:29;27.30;96.50
21031;DHT22;61072;47.808;7.636;2023-07-13T16:23:57;27.30;95.40
21031;DHT22;61072;47.808;7.636;2023-07-13T16:26:36;27.30;95.60
21031;DHT22;61072;47.808;7.636;2023-07-13T16:29:15;27.30;95.80
21031;DHT22;61072;47.808;7.636;2023-07-13T16:32:12;27.40;95.60
21031;DHT22;61072;47.808;7.636;2023-07-13T16:34:41;27.40;95.30
21031;DHT22;61072;47.808;7.636;2023-07-13T16:37:18;27.40;95.50
21031;DHT22;61072;47.808;7.636;2023-07-13T16:39:48;27.40;95.40
21031;DHT22;61072;47.808;7.636;2023-07-13T16:42:15;27.40;95.40
21031;DHT22;61072;47.808;7.636;2023-07-13T16:44:42;27.40;95.60
21031;DHT22;61072;47.808;7.636;2023-07-13T16:47:14;27.40;95.60
21031;DHT22;61072;47.808;7.636;2023-07-13T16:49:42;27.30;96.10
21031;DHT22;61072;47.808;7.636;2023-07-13T16:52:14;27.30;95.90
21031;DHT22;61072;47.808;7.636;2023-07-13T16:54:41;27.30;95.70
21031;DHT22;61072;47.808;7.636;2023-07-13T16:57:20;27.30;96.20
21031;DHT22;61072;47.808;7.636;2023-07-13T16:59:49;27.20;96.00
21031;DHT22;61072;47.808;7.636;2023-07-13T17:04:55;27.10;96.00
21031;DHT22;61072;47.808;7.636;2023-07-13T17:07:23;27.10;96.10
21031;DHT22;61072;47.808;7.636;2023-07-13T17:09:50;27.10;96.40
21031;DHT22;61072;47.808;7.636;2023-07-13T17:12:18;27.10;96.50
21031;DHT22;61072;47.808;7.636;2023-07-13T17:14:48;27.10;96.50
21031;DHT22;61072;47.808;7.636;2023-07-13T17:17:38;27.00;97.30
21031;DHT22;61072;47.808;7.636;2023-07-13T17:20:22;26.90;97.10
21031;DHT22;61072;47.808;7.636;2023-07-13T17:22:51;26.90;96.90
21031;DHT22;61072;47.808;7.636;2023-07-13T17:25:19;26.90;97.00
21031;DHT22;61072;47.808;7.636;2023-07-13T17:27:48;26.90;97.30
21031;DHT22;61072;47.808;7.636;2023-07-13T17:30:22;26.80;97.10
21031;DHT22;61072;47.808;7.636;2023-07-13T17:32:50;26.80;97.30
21031;DHT22;61072;47.808;7.636;2023-07-13T17:35:27;26.70;97.90
21031;DHT22;61072;47.808;7.636;2023-07-13T17:37:56;26.70;97.80
21031;DHT22;61072;47.808;7.636;2023-07-13T17:40:23;26.70;97.70
21031;DHT22;61072;47.808;7.636;2023-07-13T17:42:51;26.60;97.50
21031;DHT22;61072;47.808;7.636;2023-07-13T17:45:26;26.60;98.00
21031;DHT22;61072;47.808;7.636;2023-07-13T17:47:54;26.60;98.60
21031;DHT22;61072;47.808;7.636;2023-07-13T17:50:43;26.50;98.60
21031;DHT22;61072;47.808;7.636;2023-07-13T17:53:14;26.50;98.90
21031;DHT22;61072;47.808;7.636;2023-07-13T17:55:41;26.40;98.10
21031;DHT22;61072;47.808;7.636;2023-07-13T17:58:08;26.40;98.80
21031;DHT22;61072;47.808;7.636;2023-07-13T18:00:37;26.30;98.90
21031;DHT22;61072;47.808;7.636;2023-07-13T18:03:16;26.30;99.00
21031;DHT22;61072;47.808;7.636;2023-07-13T18:05:45;26.30;99.10
21031;DHT22;61072;47.808;7.636;2023-07-13T18:08:25;26.20;99.10
21031;DHT22;61072;47.808;7.636;2023-07-13T18:10:54;26.20;99.20
21031;DHT22;61072;47.808;7.636;2023-07-13T18:13:22;26.20;99.50
21031;DHT22;61072;47.808;7.636;2023-07-13T18:15:49;26.10;99.20
21031;DHT22;61072;47.808;7.636;2023-07-13T18:18:19;26.10;99.30
21031;DHT22;61072;47.808;7.636;2023-07-13T18:20:47;26.10;99.10
21031;DHT22;61072;47.808;7.636;2023-07-13T18:23:20;26.10;99.20
21031;DHT22;61072;47.808;7.636;2023-07-13T18:25:48;26.10;99.40
21031;DHT22;61072;47.808;7.636;2023-07-13T18:28:16;26.10;99.50
21031;DHT22;61072;47.808;7.636;2023-07-13T18:30:45;26.00;99.40
21031;DHT22;61072;47.808;7.636;2023-07-13T18:33:25;25.90;99.00
21031;DHT22;61072;47.808;7.636;2023-07-13T18:35:52;25.90;99.00
21031;DHT22;61072;47.808;7.636;2023-07-13T18:38:24;25.80;98.90
21031;DHT22;61072;47.808;7.636;2023-07-13T18:40:54;25.80;99.20
21031;DHT22;61072;47.808;7.636;2023-07-13T18:43:22;25.70;99.10
21031;DHT22;61072;47.808;7.636;2023-07-13T18:45:55;25.60;99.30
21031;DHT22;61072;47.808;7.636;2023-07-13T18:48:24;25.60;99.50
21031;DHT22;61072;47.808;7.636;2023-07-13T18:50:53;25.50;99.60
21031;DHT22;61072;47.808;7.636;2023-07-13T18:53:22;25.50;99.70
21031;DHT22;61072;47.808;7.636;2023-07-13T18:55:48;25.40;99.90
21031;DHT22;61072;47.808;7.636;2023-07-13T18:58:15;25.40;99.90
21031;DHT22;61072;47.808;7.636;2023-07-13T19:00:49;25.30;99.90
21031;DHT22;61072;47.808;7.636;2023-07-13T19:03:17;25.30;99.90
21031;DHT22;61072;47.808;7.636;2023-07-13T19:05:45;25.20;99.90
21031;DHT22;61072;47.808;7.636;2023-07-13T19:08:25;25.10;99.90
21031;DHT22;61072;47.808;7.636;2023-07-13T19:10:53;25.10;99.90
21031;DHT22;61072;47.808;7.636;2023-07-13T19:13:25;25.00;99.90
21031;DHT22;61072;47.808;7.636;2023-07-13T19:15:52;24.90;99.90
21031;DHT22;61072;47.808;7.636;2023-07-13T19:18:20;24.80;99.90
21031;DHT22;61072;47.808;7.636;2023-07-13T19:20:50;24.80;99.90
21031;DHT22;61072;47.808;7.636;2023-07-13T19:23:24;24.70;99.90
21031;DHT22;61072;47.808;7.636;2023-07-13T19:25:53;24.70;99.90
21031;DHT22;61072;47.808;7.636;2023-07-13T19:28:38;24.60;99.90
21031;DHT22;61072;47.808;7.636;2023-07-13T19:31:19;24.50;99.90
21031;DHT22;61072;47.808;7.636;2023-07-13T19:33:47;24.40;99.90
21031;DHT22;61072;47.808;7.636;2023-07-13T19:36:16;24.30;99.90
21031;DHT22;61072;47.808;7.636;2023-07-13T19:38:46;24.20;99.90
21031;DHT22;61072;47.808;7.636;2023-07-13T19:41:15;24.10;99.90
21031;DHT22;61072;47.808;7.636;2023-07-13T19:43:43;24.10;99.90
21031;DHT22;61072;47.808;7.636;2023-07-13T19:46:29;24.00;99.90
21031;DHT22;61072;47.808;7.636;2023-07-13T19:48:59;23.90;99.90
21031;DHT22;61072;47.808;7.636;2023-07-13T19:51:29;23.80;99.90
21031;DHT22;61072;47.808;7.636;2023-07-13T19:56:39;23.60;99.90
21031;DHT22;61072;47.808;7.636;2023-07-13T20:01:49;23.40;99.90
21031;DHT22;61072;47.808;7.636;2023-07-13T20:04:15;23.40;99.90
